createdAt,value
2023-07-04T00:01:18.572Z,66.19
2023-07-04T00:06:18.518Z,66.49
2023-07-04T00:11:18.391Z,66.79
2023-07-04T00:16:18.318Z,67.19
2023-07-04T00:21:18.437Z,67.53
2023-07-04T00:26:18.171Z,67.73
2023-07-04T00:31:18.568Z,68.13
2023-07-04T00:36:18.136Z,68.44
2023-07-04T00:41:17.998Z,69.28
2023-07-04T00:46:17.933Z,69.58
2023-07-04T00:51:17.825Z,70.19
2023-07-04T00:56:17.761Z,70.72
2023-07-04T01:01:17.704Z,71.33
2023-07-04T01:06:17.625Z,71.93
2023-07-04T01:11:17.557Z,72.47
2023-07-04T01:16:17.521Z,72.97
2023-07-04T01:21:17.427Z,73.48
2023-07-04T01:26:17.362Z,73.79
2023-07-04T01:31:17.335Z,74.09
2023-07-04T01:36:17.207Z,74.53
2023-07-04T01:41:17.153Z,74.93
2023-07-04T01:46:17.163Z,75.23
2023-07-04T01:51:17.036Z,75.64
2023-07-04T01:56:16.954Z,75.94
2023-07-04T02:01:16.925Z,76.58
2023-07-04T02:06:16.824Z,77.73
2023-07-04T02:11:16.780Z,78.44
2023-07-04T02:16:16.756Z,79.18
2023-07-04T02:21:16.657Z,79.79
2023-07-04T02:26:16.557Z,79.69
2023-07-04T02:31:16.586Z,79.38
2023-07-04T02:36:16.428Z,79.15
2023-07-04T02:41:16.367Z,78.94
2023-07-04T02:46:16.359Z,78.84
2023-07-04T02:51:16.240Z,78.91
2023-07-04T02:56:16.165Z,79.01
2023-07-04T03:01:16.127Z,79.21
2023-07-04T03:06:16.030Z,79.41
2023-07-04T03:11:15.997Z,79.51
2023-07-04T03:16:15.896Z,79.51
2023-07-04T03:21:15.839Z,79.62
2023-07-04T03:26:15.775Z,79.95
2023-07-04T03:31:15.769Z,80.16
2023-07-04T03:36:15.637Z,80.36
2023-07-04T03:41:15.561Z,80.26
2023-07-04T03:46:15.493Z,80.12
2023-07-04T03:51:15.433Z,79.91
2023-07-04T03:56:15.377Z,79.71
2023-07-04T04:01:15.312Z,79.37
2023-07-04T04:06:15.262Z,78.93
2023-07-04T04:11:15.170Z,78.29
2023-07-04T04:16:15.158Z,77.24
2023-07-04T04:21:15.048Z,76.50
2023-07-04T04:26:14.986Z,75.76
2023-07-04T04:31:14.945Z,74.82
2023-07-04T04:36:14.843Z,73.54
2023-07-04T04:41:14.786Z,72.27
2023-07-04T04:46:14.724Z,70.89
2023-07-04T04:51:14.646Z,70.05
2023-07-04T04:56:14.578Z,69.09
2023-07-04T05:01:14.517Z,67.71
2023-07-04T05:06:14.454Z,67.32
2023-07-04T05:11:14.374Z,66.15
2023-07-04T05:16:14.395Z,65.95
2023-07-04T05:21:14.264Z,65.22
2023-07-04T05:26:14.172Z,64.39
2023-07-04T05:31:16.191Z,64.29
2023-07-04T05:36:14.037Z,63.56
2023-07-04T05:41:13.981Z,62.93
2023-07-04T05:46:13.969Z,61.40
2023-07-04T05:51:13.852Z,59.97
2023-07-04T05:56:13.794Z,58.52
2023-07-04T06:01:13.722Z,56.25
2023-07-04T06:06:13.659Z,55.47
2023-07-04T06:11:13.572Z,52.23
2023-07-04T06:16:13.548Z,49.76
2023-07-04T06:21:13.450Z,48.22
2023-07-04T06:26:13.397Z,45.88
2023-07-04T06:31:13.439Z,46.08
2023-07-04T06:36:13.257Z,46.35
2023-07-04T06:41:13.204Z,46.20
2023-07-04T06:46:13.148Z,47.50
2023-07-04T06:51:13.082Z,49.11
2023-07-04T06:56:13.153Z,49.63
2023-07-04T07:01:12.975Z,49.19
2023-07-04T07:06:14.016Z,47.46
2023-07-04T07:11:12.785Z,44.58
2023-07-04T07:16:12.860Z,44.45
2023-07-04T07:21:12.868Z,45.36
2023-07-04T07:26:12.606Z,46.05
2023-07-04T07:31:13.744Z,44.47
2023-07-04T07:36:12.455Z,42.54
2023-07-04T07:41:12.394Z,41.51
2023-07-04T07:46:12.404Z,39.67
2023-07-04T07:51:12.261Z,38.65
2023-07-04T07:56:12.203Z,38.73
2023-07-04T08:01:12.141Z,39.32
2023-07-04T08:06:12.082Z,38.20
2023-07-04T08:11:12.020Z,37.20
2023-07-04T08:16:12.032Z,38.43
2023-07-04T08:21:11.875Z,38.90
2023-07-04T08:26:11.850Z,39.18
2023-07-04T08:31:11.739Z,40.28
2023-07-04T08:36:11.686Z,39.20
2023-07-04T08:41:11.624Z,39.71
2023-07-04T08:46:11.569Z,39.08
2023-07-04T08:51:11.467Z,39.77
2023-07-04T08:56:11.419Z,39.02
2023-07-04T09:01:11.377Z,39.06
2023-07-04T09:06:11.276Z,38.04
2023-07-04T09:11:11.208Z,36.01
2023-07-04T09:16:11.184Z,38.20
2023-07-04T09:21:11.083Z,35.68
2023-07-04T09:26:11.045Z,35.08
2023-07-04T09:31:10.987Z,34.67
2023-07-04T09:36:10.890Z,34.06
2023-07-04T09:41:10.878Z,33.96
2023-07-04T09:46:10.771Z,35.06
2023-07-04T09:51:10.687Z,35.04
2023-07-04T09:56:10.616Z,35.55
2023-07-04T10:01:10.593Z,35.76
2023-07-04T10:06:10.577Z,38.04
2023-07-04T10:11:10.428Z,38.75
2023-07-04T10:16:10.366Z,38.33
2023-07-04T10:21:10.299Z,36.16
2023-07-04T10:26:10.228Z,33.98
2023-07-04T10:31:10.227Z,36.33
2023-07-04T10:36:10.104Z,36.34
2023-07-04T10:41:10.032Z,36.07
2023-07-04T10:46:09.989Z,35.18
2023-07-04T10:51:09.896Z,34.08
2023-07-04T10:56:09.852Z,34.57
2023-07-04T11:01:09.802Z,35.15
2023-07-04T11:06:09.708Z,36.34
2023-07-04T11:11:10.794Z,36.56
2023-07-04T11:16:09.605Z,34.77
2023-07-04T11:21:09.523Z,35.87
2023-07-04T11:26:09.479Z,35.49
2023-07-04T11:31:09.465Z,36.68
2023-07-04T11:36:09.321Z,35.52
2023-07-04T11:41:09.251Z,36.49
2023-07-04T11:46:09.204Z,36.10
2023-07-04T11:51:09.113Z,36.99
2023-07-04T11:56:09.060Z,35.49
2023-07-04T12:01:08.980Z,36.71
2023-07-04T12:06:08.930Z,35.43
2023-07-04T12:11:08.853Z,36.32
2023-07-04T12:16:08.853Z,35.72
2023-07-04T12:21:08.726Z,37.03
2023-07-04T12:26:08.668Z,37.56
2023-07-04T12:36:08.530Z,36.84
2023-07-04T12:41:08.457Z,36.25
2023-07-04T12:51:08.403Z,37.06
2023-07-04T12:56:08.267Z,36.35
2023-07-04T13:01:08.235Z,35.86
2023-07-04T13:06:08.121Z,36.25
2023-07-04T13:11:08.061Z,34.97
2023-07-04T13:16:08.022Z,36.78
2023-07-04T13:21:07.964Z,38.07
2023-07-04T13:26:07.909Z,36.59
2023-07-04T13:36:07.742Z,37.47
2023-07-04T13:41:07.669Z,36.66
2023-07-04T13:46:07.685Z,36.76
2023-07-04T13:51:07.540Z,36.57
2023-07-04T13:56:07.496Z,37.18
2023-07-04T14:06:07.686Z,37.37
2023-07-04T14:11:07.294Z,37.08
2023-07-04T14:21:07.300Z,36.70
2023-07-04T14:26:07.092Z,36.90
2023-07-04T14:31:07.107Z,37.71
2023-07-04T14:36:06.941Z,38.01
2023-07-04T14:46:07.283Z,38.03
2023-07-04T14:51:06.746Z,37.63
2023-07-04T14:56:06.695Z,37.12
2023-07-04T15:01:06.930Z,38.01
2023-07-04T15:06:06.562Z,37.82
2023-07-04T15:11:06.523Z,38.42
2023-07-04T15:16:06.462Z,38.22
2023-07-04T15:21:06.354Z,38.14
2023-07-04T15:26:24.981Z,38.64
2023-07-04T15:31:07.272Z,38.36
2023-07-04T15:36:06.164Z,38.34
2023-07-04T15:41:09.038Z,38.24
2023-07-04T15:46:06.053Z,38.34
2023-07-04T15:51:05.979Z,38.24
2023-07-04T15:56:05.895Z,37.67
2023-07-04T16:01:05.876Z,38.26
2023-07-04T16:06:05.785Z,38.97
2023-07-04T16:11:05.701Z,37.88
2023-07-04T16:16:05.660Z,39.07
2023-07-04T16:21:05.572Z,37.88
2023-07-04T16:26:05.501Z,37.80
2023-07-04T16:31:05.451Z,38.39
2023-07-04T16:36:05.659Z,39.29
2023-07-04T16:41:05.320Z,39.31
2023-07-04T16:46:05.350Z,39.41
2023-07-04T16:51:05.194Z,39.50
2023-07-04T16:56:05.158Z,39.72
2023-07-04T17:01:05.122Z,40.42
2023-07-04T17:06:04.993Z,40.52
2023-07-04T17:11:04.922Z,40.74
2023-07-04T17:16:04.863Z,40.83
2023-07-04T17:21:04.795Z,41.63
2023-07-04T17:26:04.760Z,41.65
2023-07-04T17:31:04.813Z,42.05
2023-07-04T17:36:04.599Z,43.54
2023-07-04T17:41:04.524Z,43.85
2023-07-04T17:46:04.467Z,44.26
2023-07-04T17:51:04.384Z,45.17
2023-07-04T17:56:04.332Z,45.17
2023-07-04T18:01:04.281Z,45.39
2023-07-04T18:06:04.218Z,45.09
2023-07-04T18:11:04.130Z,45.22
2023-07-04T18:16:04.055Z,45.91
2023-07-04T18:21:03.995Z,46.63
2023-07-04T18:26:03.931Z,46.75
2023-07-04T18:31:03.921Z,46.97
2023-07-04T18:36:03.799Z,47.27
2023-07-04T18:41:03.734Z,47.60
2023-07-04T18:46:03.654Z,48.19
2023-07-04T18:51:03.589Z,48.02
2023-07-04T18:56:03.531Z,48.52
2023-07-04T19:01:03.470Z,49.14
2023-07-04T19:06:03.397Z,49.94
2023-07-04T19:11:03.330Z,51.06
2023-07-04T19:16:03.289Z,51.49
2023-07-04T19:21:03.213Z,51.69
2023-07-04T19:26:03.154Z,53.32
2023-07-04T19:31:03.076Z,55.44
2023-07-04T19:36:02.992Z,56.07
2023-07-04T19:41:02.951Z,57.40
2023-07-04T19:46:02.911Z,57.00
2023-07-04T19:51:02.806Z,55.72
2023-07-04T19:56:02.733Z,55.22
2023-07-04T20:01:02.685Z,54.42
2023-07-04T20:06:02.620Z,54.72
2023-07-04T20:11:02.546Z,55.12
2023-07-04T20:16:02.532Z,55.22
2023-07-04T20:21:02.452Z,55.52
2023-07-04T20:26:02.328Z,56.35
2023-07-04T20:31:02.277Z,56.88
2023-07-04T20:36:02.276Z,57.58
2023-07-04T20:41:02.174Z,58.71
2023-07-04T20:46:02.183Z,59.85
2023-07-04T20:51:02.004Z,60.75
2023-07-04T20:56:01.942Z,60.18
2023-07-04T21:01:01.937Z,60.88
2023-07-04T21:06:01.806Z,61.48
2023-07-04T21:11:01.747Z,62.21
2023-07-04T21:16:01.763Z,63.04
2023-07-04T21:21:01.623Z,63.18
2023-07-04T21:26:01.534Z,63.88
2023-07-04T21:31:01.586Z,64.31
2023-07-04T21:36:01.494Z,64.92
2023-07-04T21:41:01.348Z,65.32
2023-07-04T21:46:01.274Z,65.75
2023-07-04T21:51:01.219Z,66.26
2023-07-04T21:56:01.194Z,66.69
2023-07-04T22:01:01.122Z,67.13
2023-07-04T22:06:00.998Z,67.73
2023-07-04T22:11:00.941Z,67.63
2023-07-04T22:16:00.865Z,67.76
2023-07-04T22:21:00.811Z,68.37
2023-07-04T22:26:00.725Z,68.37
2023-07-04T22:31:00.736Z,68.17
2023-07-04T22:36:00.604Z,67.66
2023-07-04T22:41:00.548Z,67.56
2023-07-04T22:46:00.498Z,67.96
2023-07-04T22:51:00.424Z,68.57
2023-07-04T22:56:00.337Z,68.50
2023-07-04T23:01:01.865Z,68.40
2023-07-04T23:06:00.212Z,68.30
2023-07-04T23:11:00.199Z,68.81
2023-07-04T23:16:00.083Z,68.90
2023-07-04T23:21:00.029Z,69.04
2023-07-04T23:25:59.955Z,68.54
2023-07-04T23:30:59.879Z,68.20
2023-07-04T23:35:59.806Z,68.74
2023-07-04T23:40:59.779Z,68.84
2023-07-04T23:45:59.848Z,68.43
2023-07-04T23:50:59.616Z,67.73
2023-07-04T23:55:59.577Z,67.63
